createdAt,value
2017-12-03T00:01:15.969Z,-0.40
2017-12-03T00:03:43.675Z,-0.50
2017-12-03T00:06:11.330Z,-0.50
2017-12-03T00:08:39.818Z,-0.50
2017-12-03T00:11:07.450Z,-0.60
2017-12-03T00:13:35.079Z,-0.60
2017-12-03T00:16:03.503Z,-0.70
2017-12-03T00:18:31.136Z,-0.70
2017-12-03T00:20:58.862Z,-0.70
2017-12-03T00:23:26.492Z,-0.80
2017-12-03T00:25:54.119Z,-0.80
2017-12-03T00:28:21.802Z,-0.80
2017-12-03T00:30:49.617Z,-0.80
2017-12-03T00:33:17.285Z,-0.90
2017-12-03T00:35:45.676Z,-0.90
2017-12-03T00:38:13.309Z,-1.00
2017-12-03T00:40:40.964Z,-0.90
2017-12-03T00:43:08.705Z,-0.90
2017-12-03T00:45:36.381Z,-0.90
2017-12-03T00:48:04.016Z,-1.00
2017-12-03T00:50:31.656Z,-1.00
2017-12-03T00:52:59.489Z,-1.00
2017-12-03T00:55:27.890Z,-1.00
2017-12-03T00:57:55.555Z,-1.10
2017-12-03T01:00:23.205Z,-1.00
2017-12-03T01:02:50.836Z,-1.00
2017-12-03T01:05:21.282Z,-1.00
2017-12-03T01:07:48.904Z,-1.10
2017-12-03T01:10:16.563Z,-1.10
2017-12-03T01:12:44.186Z,-1.10
2017-12-03T01:15:11.810Z,-1.20
2017-12-03T01:17:39.551Z,-1.20
2017-12-03T01:20:07.182Z,-1.20
2017-12-03T01:22:34.864Z,-1.10
2017-12-03T01:25:04.209Z,-1.10
2017-12-03T01:27:32.606Z,-1.20
2017-12-03T01:30:00.269Z,-1.30
2017-12-03T01:32:28.790Z,-1.30
2017-12-03T01:34:56.455Z,-1.30
2017-12-03T01:37:24.081Z,-1.40
2017-12-03T01:39:52.475Z,-1.50
2017-12-03T01:42:20.153Z,-1.50
2017-12-03T01:44:48.790Z,-1.50
2017-12-03T01:47:16.453Z,-1.50
2017-12-03T01:49:44.076Z,-1.60
2017-12-03T01:52:11.704Z,-1.50
2017-12-03T01:54:40.133Z,-1.50
2017-12-03T01:57:07.863Z,-1.50
2017-12-03T01:59:35.538Z,-1.40
2017-12-03T02:02:03.174Z,-1.40
2017-12-03T02:04:30.806Z,-1.40
2017-12-03T02:06:58.622Z,-1.40
2017-12-03T02:09:26.241Z,-1.40
2017-12-03T02:11:53.900Z,-1.40
2017-12-03T02:14:22.363Z,-1.40
2017-12-03T02:16:50.750Z,-1.60
2017-12-03T02:19:18.439Z,-1.60
2017-12-03T02:21:46.089Z,-1.60
2017-12-03T02:24:13.745Z,-1.60
2017-12-03T02:26:41.396Z,-1.70
2017-12-03T02:29:09.021Z,-1.70
2017-12-03T02:31:36.691Z,-1.70
2017-12-03T02:34:04.318Z,-1.70
2017-12-03T02:36:32.000Z,-1.70
2017-12-03T02:39:00.396Z,-1.70
2017-12-03T02:41:28.065Z,-1.80
2017-12-03T02:43:55.756Z,-1.80
2017-12-03T02:46:23.391Z,-1.70
2017-12-03T02:48:51.062Z,-1.70
2017-12-03T02:51:19.476Z,-1.80
2017-12-03T02:53:47.101Z,-1.90
2017-12-03T02:56:14.774Z,-1.80
2017-12-03T02:58:42.400Z,-1.80
2017-12-03T03:01:10.062Z,-1.80
2017-12-03T03:03:37.745Z,-1.80
2017-12-03T03:06:05.423Z,-1.80
2017-12-03T03:08:33.094Z,-1.80
2017-12-03T03:11:00.719Z,-1.80
2017-12-03T03:13:28.423Z,-1.80
2017-12-03T03:15:56.082Z,-1.70
2017-12-03T03:18:24.480Z,-1.60
2017-12-03T03:20:52.145Z,-1.70
2017-12-03T03:23:19.806Z,-1.60
2017-12-03T03:25:47.481Z,-1.60
2017-12-03T03:28:15.110Z,-1.50
2017-12-03T03:30:42.755Z,-1.50
2017-12-03T03:33:10.422Z,-1.50
2017-12-03T03:35:38.050Z,-1.40
2017-12-03T03:38:05.714Z,-1.30
2017-12-03T03:40:35.038Z,-1.20
2017-12-03T03:43:02.693Z,-1.10
2017-12-03T03:45:30.361Z,-1.00
2017-12-03T03:47:58.273Z,-0.90
2017-12-03T03:50:25.926Z,-0.90
2017-12-03T03:52:53.553Z,-0.80
2017-12-03T03:55:21.262Z,-0.80
2017-12-03T03:57:48.934Z,-0.70
2017-12-03T04:00:16.561Z,-0.70
2017-12-03T04:02:44.212Z,-0.60
2017-12-03T04:05:11.842Z,-0.70
2017-12-03T04:07:39.598Z,-0.70
2017-12-03T04:10:07.254Z,-0.60
2017-12-03T04:12:34.926Z,-0.60
2017-12-03T04:15:03.342Z,-0.60
2017-12-03T04:17:30.974Z,-0.60
2017-12-03T04:19:58.830Z,-0.60
2017-12-03T04:22:26.727Z,-0.60
2017-12-03T04:24:54.358Z,-0.60
2017-12-03T04:27:22.020Z,-0.60
2017-12-03T04:29:49.791Z,-0.50
2017-12-03T04:32:17.424Z,-0.50
2017-12-03T04:34:45.080Z,-0.50
2017-12-03T04:37:12.733Z,-0.40
2017-12-03T04:39:41.160Z,-0.50
2017-12-03T04:42:08.866Z,-0.50
2017-12-03T04:44:36.493Z,-0.50
2017-12-03T04:47:04.164Z,-0.40
2017-12-03T04:49:31.797Z,-0.40
2017-12-03T04:51:59.537Z,-0.40
2017-12-03T04:54:27.934Z,-0.40
2017-12-03T04:56:55.555Z,-0.40
2017-12-03T04:59:23.218Z,-0.40
2017-12-03T05:01:50.866Z,-0.50
2017-12-03T05:04:18.708Z,-0.50
2017-12-03T05:06:46.341Z,-0.50
2017-12-03T05:09:13.970Z,-0.50
2017-12-03T05:11:41.686Z,-0.50
2017-12-03T05:14:09.403Z,-0.50
2017-12-03T05:16:37.065Z,-0.50
2017-12-03T05:19:04.696Z,-0.60
2017-12-03T05:21:32.329Z,-0.60
2017-12-03T05:24:00.006Z,-0.70
2017-12-03T05:26:27.702Z,-0.70
2017-12-03T05:28:55.505Z,-0.60
2017-12-03T05:31:23.127Z,-0.70
2017-12-03T05:33:50.761Z,-0.70
2017-12-03T05:36:18.466Z,-0.70
2017-12-03T05:38:46.108Z,-0.80
2017-12-03T05:41:13.764Z,-0.80
2017-12-03T05:43:41.394Z,-0.80
2017-12-03T05:46:09.030Z,-0.80
2017-12-03T05:48:36.690Z,-0.90
2017-12-03T05:51:04.340Z,-0.90
2017-12-03T05:53:32.004Z,-0.90
2017-12-03T05:55:59.717Z,-0.90
2017-12-03T05:58:27.338Z,-0.90
2017-12-03T06:00:54.994Z,-0.90
2017-12-03T06:03:22.638Z,-1.00
2017-12-03T06:05:50.303Z,-1.00
2017-12-03T06:08:18.118Z,-0.90
2017-12-03T06:10:45.767Z,-1.00
2017-12-03T06:13:13.425Z,-1.00
2017-12-03T06:15:41.040Z,-1.00
2017-12-03T06:18:09.657Z,-1.00
2017-12-03T06:20:37.291Z,-1.00
2017-12-03T06:23:04.926Z,-1.00
2017-12-03T06:25:32.580Z,-1.10
2017-12-03T06:28:00.210Z,-1.00
2017-12-03T06:30:27.898Z,-1.10
2017-12-03T06:32:55.533Z,-1.20
2017-12-03T06:35:23.204Z,-1.20
2017-12-03T06:37:50.866Z,-1.20
2017-12-03T06:40:18.741Z,-1.30
2017-12-03T06:42:47.194Z,-1.30
2017-12-03T06:45:14.821Z,-1.30
2017-12-03T06:47:42.439Z,-1.30
2017-12-03T06:50:10.093Z,-1.30
2017-12-03T06:52:37.756Z,-1.30
2017-12-03T06:55:05.482Z,-1.30
2017-12-03T06:57:33.111Z,-1.30
2017-12-03T07:00:00.738Z,-1.30
2017-12-03T07:02:29.305Z,-1.30
2017-12-03T07:04:56.959Z,-1.40
2017-12-03T07:07:24.605Z,-1.40
2017-12-03T07:09:53.013Z,-1.40
2017-12-03T07:12:20.646Z,-1.40
2017-12-03T07:14:48.410Z,-1.40
2017-12-03T07:17:16.051Z,-1.40
2017-12-03T07:19:43.731Z,-1.40
2017-12-03T07:22:11.371Z,-1.40
2017-12-03T07:24:39.015Z,-1.50
2017-12-03T07:27:06.687Z,-1.50
2017-12-03T07:29:35.078Z,-1.50
2017-12-03T07:32:02.739Z,-1.50
2017-12-03T07:34:30.375Z,-1.50
2017-12-03T07:36:58.018Z,-1.40
2017-12-03T07:39:25.674Z,-1.40
2017-12-03T07:41:53.316Z,-1.20
2017-12-03T07:44:20.982Z,-1.20
2017-12-03T07:46:48.790Z,-1.10
2017-12-03T07:49:17.256Z,-1.00
2017-12-03T07:51:45.674Z,-0.90
2017-12-03T07:54:13.347Z,-1.00
2017-12-03T07:56:41.017Z,-1.00
2017-12-03T07:59:08.767Z,-1.00
2017-12-03T08:01:36.419Z,-1.00
2017-12-03T08:04:04.459Z,-1.00
2017-12-03T08:06:32.094Z,-0.90
2017-12-03T08:08:59.802Z,-0.80
2017-12-03T08:11:27.438Z,-0.90
2017-12-03T08:13:55.074Z,-0.90
2017-12-03T08:16:22.741Z,-0.80
2017-12-03T08:18:50.399Z,-0.80
2017-12-03T08:21:18.327Z,-0.70
2017-12-03T08:23:45.955Z,-0.70
2017-12-03T08:26:13.586Z,-0.60
2017-12-03T08:28:41.243Z,-0.50
2017-12-03T08:31:08.870Z,-0.30
2017-12-03T08:33:36.525Z,-0.30
2017-12-03T08:36:04.916Z,-0.10
2017-12-03T08:38:32.541Z,-0.20
2017-12-03T08:41:00.258Z,0.10
2017-12-03T08:43:27.922Z,0.20
2017-12-03T08:45:56.336Z,0.40
2017-12-03T08:48:23.954Z,0.30
2017-12-03T08:50:51.572Z,0.30
2017-12-03T08:53:19.345Z,0.30
2017-12-03T08:55:47.775Z,0.50
2017-12-03T08:58:15.517Z,0.40
2017-12-03T09:00:43.146Z,0.40
2017-12-03T09:03:10.766Z,0.40
2017-12-03T09:05:38.427Z,0.50
2017-12-03T09:08:06.095Z,0.60
2017-12-03T09:10:33.746Z,0.80
2017-12-03T09:13:01.375Z,0.70
2017-12-03T09:15:29.001Z,0.70
2017-12-03T09:17:56.665Z,0.50
2017-12-03T09:20:24.285Z,0.50
2017-12-03T09:22:52.250Z,0.80
2017-12-03T09:25:19.881Z,1.30
2017-12-03T09:27:47.516Z,1.60
2017-12-03T09:30:15.947Z,1.50
2017-12-03T09:32:43.570Z,1.50
2017-12-03T09:35:11.227Z,1.90
2017-12-03T09:37:38.862Z,2.10
2017-12-03T09:40:06.481Z,2.20
2017-12-03T09:42:34.124Z,2.40
2017-12-03T09:45:01.773Z,2.50
2017-12-03T09:47:29.454Z,2.80
2017-12-03T09:49:57.123Z,2.90
2017-12-03T09:52:24.778Z,3.50
2017-12-03T09:54:52.431Z,3.70
2017-12-03T09:57:20.057Z,4.20
2017-12-03T09:59:47.793Z,4.60
2017-12-03T10:02:15.529Z,4.90
2017-12-03T10:04:43.150Z,5.10
2017-12-03T10:07:10.778Z,4.80
2017-12-03T10:09:38.694Z,5.00
2017-12-03T10:12:06.310Z,4.70
2017-12-03T10:14:33.965Z,4.40
2017-12-03T10:17:01.588Z,4.70
2017-12-03T10:19:30.480Z,4.70
2017-12-03T10:21:58.366Z,4.70
2017-12-03T10:24:26.012Z,4.80
2017-12-03T10:26:53.692Z,5.10
2017-12-03T10:29:22.080Z,4.90
2017-12-03T10:31:51.417Z,4.80
2017-12-03T10:34:19.066Z,5.00
2017-12-03T10:36:46.690Z,4.80
2017-12-03T10:39:14.346Z,5.30
2017-12-03T10:41:41.970Z,5.20
2017-12-03T10:44:09.788Z,5.00
2017-12-03T10:46:37.434Z,5.20
2017-12-03T10:49:05.540Z,4.70
2017-12-03T10:51:33.194Z,4.30
2017-12-03T10:54:00.812Z,4.70
2017-12-03T10:56:28.679Z,4.80
2017-12-03T10:58:56.338Z,4.90
2017-12-03T11:01:23.962Z,4.90
2017-12-03T11:03:51.628Z,4.40
2017-12-03T11:06:19.267Z,4.40
2017-12-03T11:08:46.902Z,4.60
2017-12-03T11:11:14.575Z,4.50
2017-12-03T11:13:42.203Z,4.10
2017-12-03T11:16:10.123Z,3.80
2017-12-03T11:18:37.792Z,3.80
2017-12-03T11:21:05.458Z,3.90
2017-12-03T11:23:33.115Z,3.70
2017-12-03T11:26:00.745Z,3.50
2017-12-03T11:28:28.574Z,3.20
2017-12-03T11:30:56.198Z,2.60
2017-12-03T11:33:23.822Z,2.20
2017-12-03T11:35:51.473Z,2.20
2017-12-03T11:38:19.099Z,2.10
2017-12-03T11:40:46.752Z,2.20
2017-12-03T11:43:14.373Z,2.50
2017-12-03T11:45:41.988Z,2.60
2017-12-03T11:48:09.825Z,2.20
2017-12-03T11:50:37.459Z,2.00
2017-12-03T11:53:05.110Z,2.10
2017-12-03T11:55:33.493Z,1.80
2017-12-03T11:58:01.911Z,1.70
2017-12-03T12:00:29.546Z,1.60
2017-12-03T12:02:57.159Z,1.70
2017-12-03T12:05:24.797Z,1.70
2017-12-03T12:07:52.426Z,1.60
2017-12-03T12:10:20.833Z,1.50
2017-12-03T12:12:48.550Z,1.50
2017-12-03T12:15:16.175Z,1.30
2017-12-03T12:17:43.822Z,1.30
2017-12-03T12:20:11.434Z,1.30
2017-12-03T12:22:39.051Z,1.30
2017-12-03T12:25:06.698Z,1.30
2017-12-03T12:27:34.326Z,1.30
2017-12-03T12:30:01.978Z,1.30
2017-12-03T12:32:29.589Z,1.20
2017-12-03T12:34:57.202Z,1.10
2017-12-03T12:37:25.179Z,1.20
2017-12-03T12:39:52.811Z,1.20
2017-12-03T12:42:20.489Z,1.30
2017-12-03T12:44:48.213Z,1.40
2017-12-03T12:47:15.842Z,1.80
2017-12-03T12:49:43.495Z,2.20
2017-12-03T12:52:11.106Z,2.30
2017-12-03T12:54:38.821Z,2.40
2017-12-03T12:57:06.465Z,2.50
2017-12-03T12:59:34.084Z,2.40
2017-12-03T13:02:01.733Z,2.00
2017-12-03T13:04:29.352Z,2.00
2017-12-03T13:06:57.003Z,2.20
2017-12-03T13:09:24.633Z,2.50
2017-12-03T13:11:52.250Z,3.00
2017-12-03T13:14:20.674Z,2.40
2017-12-03T13:16:48.441Z,2.40
2017-12-03T13:19:16.125Z,2.10
2017-12-03T13:21:43.782Z,1.80
2017-12-03T13:24:11.417Z,1.60
2017-12-03T13:26:40.023Z,1.50
2017-12-03T13:29:07.701Z,1.50
2017-12-03T13:31:35.478Z,1.40
2017-12-03T13:34:03.861Z,1.40
2017-12-03T13:36:31.487Z,1.30
2017-12-03T13:38:59.975Z,1.30
2017-12-03T13:41:27.626Z,1.30
2017-12-03T13:43:55.341Z,1.30
2017-12-03T13:46:22.953Z,1.40
2017-12-03T13:48:50.582Z,1.40
2017-12-03T13:51:18.339Z,1.40
2017-12-03T13:53:45.968Z,1.40
2017-12-03T13:56:13.641Z,1.30
2017-12-03T13:58:41.267Z,1.30
2017-12-03T14:01:08.892Z,1.30
2017-12-03T14:03:36.568Z,1.30
2017-12-03T14:06:04.205Z,1.20
2017-12-03T14:08:31.868Z,1.20
2017-12-03T14:10:59.497Z,1.20
2017-12-03T14:13:27.153Z,1.30
2017-12-03T14:15:54.803Z,1.30
2017-12-03T14:18:22.425Z,1.30
2017-12-03T14:20:50.084Z,1.20
2017-12-03T14:23:17.736Z,1.20
2017-12-03T14:25:45.475Z,1.10
2017-12-03T14:28:13.132Z,1.10
2017-12-03T14:30:40.757Z,1.10
2017-12-03T14:33:08.434Z,1.20
2017-12-03T14:35:36.066Z,1.10
2017-12-03T14:38:03.974Z,1.20
2017-12-03T14:40:31.622Z,1.20
2017-12-03T14:42:59.243Z,1.10
2017-12-03T14:45:26.936Z,1.00
2017-12-03T14:47:54.558Z,1.00
2017-12-03T14:50:22.179Z,1.00
2017-12-03T14:52:49.951Z,1.10
2017-12-03T14:55:17.877Z,1.10
2017-12-03T14:57:45.550Z,1.10
2017-12-03T15:00:13.192Z,1.10
2017-12-03T15:02:40.813Z,1.10
2017-12-03T15:05:08.801Z,1.10
2017-12-03T15:07:36.421Z,1.10
2017-12-03T15:10:04.070Z,1.10
2017-12-03T15:12:31.714Z,1.10
2017-12-03T15:14:59.369Z,1.10
2017-12-03T15:17:27.010Z,1.10
2017-12-03T15:19:54.630Z,1.10
2017-12-03T15:22:22.285Z,1.20
2017-12-03T15:24:49.911Z,1.20
2017-12-03T15:27:18.991Z,1.10
2017-12-03T15:29:46.659Z,1.10
2017-12-03T15:32:14.274Z,1.10
2017-12-03T15:34:41.937Z,1.20
2017-12-03T15:37:09.791Z,1.20
2017-12-03T15:39:37.416Z,1.10
2017-12-03T15:42:05.062Z,1.10
2017-12-03T15:44:32.723Z,1.10
2017-12-03T15:47:00.377Z,1.10
2017-12-03T15:49:28.002Z,1.10
2017-12-03T15:51:55.623Z,1.10
2017-12-03T15:54:23.266Z,1.10
2017-12-03T15:56:50.900Z,1.10
2017-12-03T15:59:18.717Z,1.10
2017-12-03T16:01:46.332Z,1.20
2017-12-03T16:04:14.742Z,1.20
2017-12-03T16:06:42.397Z,1.20
2017-12-03T16:09:10.011Z,1.20
2017-12-03T16:11:37.847Z,1.10
2017-12-03T16:14:05.478Z,1.10
2017-12-03T16:16:33.862Z,1.20
2017-12-03T16:19:01.522Z,1.10
2017-12-03T16:21:29.370Z,1.20
2017-12-03T16:23:57.083Z,1.20
2017-12-03T16:26:24.783Z,1.20
2017-12-03T16:28:52.458Z,1.10
2017-12-03T16:31:20.131Z,1.10
2017-12-03T16:33:48.745Z,1.20
2017-12-03T16:36:16.397Z,1.10
2017-12-03T16:38:44.047Z,1.20
2017-12-03T16:41:11.682Z,1.20
2017-12-03T16:43:39.438Z,1.30
2017-12-03T16:46:07.088Z,1.30
2017-12-03T16:48:34.770Z,1.30
2017-12-03T16:51:02.394Z,1.20
2017-12-03T16:53:30.024Z,1.20
2017-12-03T16:55:57.719Z,1.20
2017-12-03T16:58:25.426Z,1.20
2017-12-03T17:00:53.085Z,1.20
2017-12-03T17:03:20.734Z,1.20
2017-12-03T17:05:48.462Z,1.20
2017-12-03T17:08:16.130Z,1.20
2017-12-03T17:10:43.796Z,1.30
2017-12-03T17:13:11.456Z,1.20
2017-12-03T17:15:39.904Z,1.20
2017-12-03T17:18:07.558Z,1.10
2017-12-03T17:20:35.986Z,1.20
2017-12-03T17:23:03.615Z,1.20
2017-12-03T17:25:31.396Z,1.30
2017-12-03T17:27:59.213Z,1.30
2017-12-03T17:30:26.846Z,1.30
2017-12-03T17:32:54.786Z,1.20
2017-12-03T17:35:23.169Z,1.30
2017-12-03T17:37:50.835Z,1.20
2017-12-03T17:40:18.670Z,1.20
2017-12-03T17:42:46.282Z,1.20
2017-12-03T17:45:22.151Z,1.20
2017-12-03T17:47:50.067Z,1.20
2017-12-03T17:50:17.910Z,1.20
2017-12-03T17:52:45.549Z,1.20
2017-12-03T17:55:13.173Z,1.20
2017-12-03T17:57:40.841Z,1.20
2017-12-03T18:00:08.470Z,1.20
2017-12-03T18:02:36.135Z,1.30
2017-12-03T18:05:03.768Z,1.20
2017-12-03T18:07:31.402Z,1.10
2017-12-03T18:09:59.062Z,1.10
2017-12-03T18:12:26.709Z,1.10
2017-12-03T18:14:54.388Z,1.10
2017-12-03T18:17:22.027Z,1.10
2017-12-03T18:19:49.773Z,1.00
2017-12-03T18:22:17.533Z,1.10
2017-12-03T18:24:45.193Z,1.00
2017-12-03T18:27:12.872Z,1.10
2017-12-03T18:29:41.342Z,1.10
2017-12-03T18:32:09.079Z,1.10
2017-12-03T18:34:36.805Z,1.10
2017-12-03T18:37:04.478Z,1.10
2017-12-03T18:39:32.218Z,1.10
2017-12-03T18:42:00.113Z,1.10
2017-12-03T18:44:28.058Z,1.10
2017-12-03T18:46:55.723Z,1.10
2017-12-03T18:49:23.355Z,1.00
2017-12-03T18:51:51.094Z,1.10
2017-12-03T18:54:18.847Z,1.10
2017-12-03T18:56:46.555Z,1.10
2017-12-03T18:59:14.235Z,1.10
2017-12-03T19:01:41.871Z,1.00
2017-12-03T19:04:09.624Z,1.10
2017-12-03T19:06:37.357Z,1.00
2017-12-03T19:09:05.029Z,1.00
2017-12-03T19:11:32.720Z,1.00
2017-12-03T19:14:01.114Z,0.80
2017-12-03T19:16:28.994Z,0.80
2017-12-03T19:18:56.625Z,0.90
2017-12-03T19:21:24.251Z,0.80
2017-12-03T19:23:51.905Z,0.80
2017-12-03T19:26:19.732Z,0.80
2017-12-03T19:28:47.458Z,0.80
2017-12-03T19:31:15.090Z,0.70
2017-12-03T19:33:43.410Z,0.70
2017-12-03T19:36:11.086Z,0.60
2017-12-03T19:38:38.746Z,0.50
2017-12-03T19:41:06.446Z,0.50
2017-12-03T19:43:34.070Z,0.40
2017-12-03T19:46:02.485Z,0.40
2017-12-03T19:48:30.136Z,0.30
2017-12-03T19:50:57.770Z,0.40
2017-12-03T19:53:25.426Z,0.40
2017-12-03T19:55:53.116Z,0.40
2017-12-03T19:58:20.761Z,0.40
2017-12-03T20:00:48.707Z,0.40
2017-12-03T20:03:16.460Z,0.40
2017-12-03T20:05:44.136Z,0.30
2017-12-03T20:08:11.811Z,0.30
2017-12-03T20:10:39.496Z,0.20
2017-12-03T20:13:07.147Z,0.10
2017-12-03T20:15:34.805Z,0.10
2017-12-03T20:18:03.242Z,0.30
2017-12-03T20:20:30.906Z,0.20
2017-12-03T20:22:58.579Z,0.20
2017-12-03T20:25:26.265Z,0.20
2017-12-03T20:27:53.890Z,0.20
2017-12-03T20:30:21.544Z,0.30
2017-12-03T20:32:49.339Z,0.30
2017-12-03T20:35:17.001Z,0.30
2017-12-03T20:37:45.435Z,0.30
2017-12-03T20:40:13.100Z,0.30
2017-12-03T20:42:40.753Z,0.40
2017-12-03T20:45:08.808Z,0.30
2017-12-03T20:47:36.470Z,0.30
2017-12-03T20:50:04.882Z,0.40
2017-12-03T20:52:32.510Z,0.40
2017-12-03T20:55:00.181Z,0.40
2017-12-03T20:57:28.481Z,0.50
2017-12-03T20:59:56.152Z,0.40
2017-12-03T21:02:23.792Z,0.40
2017-12-03T21:04:51.517Z,0.40
2017-12-03T21:07:19.349Z,0.50
2017-12-03T21:09:47.002Z,0.50
2017-12-03T21:12:14.703Z,0.50
2017-12-03T21:14:42.329Z,0.50
2017-12-03T21:17:09.995Z,0.50
2017-12-03T21:19:37.943Z,0.50
2017-12-03T21:22:05.585Z,0.40
2017-12-03T21:24:33.249Z,0.40
2017-12-03T21:27:00.971Z,0.40
2017-12-03T21:29:28.809Z,0.50
2017-12-03T21:31:57.223Z,0.50
2017-12-03T21:34:24.863Z,0.40
2017-12-03T21:36:52.539Z,0.50
2017-12-03T21:39:20.162Z,0.50
2017-12-03T21:41:47.842Z,0.50
2017-12-03T21:44:15.485Z,0.50
2017-12-03T21:46:43.099Z,0.50
2017-12-03T21:49:10.994Z,0.50
2017-12-03T21:51:38.710Z,0.50
2017-12-03T21:54:06.427Z,0.50
2017-12-03T21:56:34.250Z,0.60
2017-12-03T21:59:03.201Z,0.50
2017-12-03T22:01:31.897Z,0.40
2017-12-03T22:03:59.627Z,0.40
2017-12-03T22:06:27.285Z,0.40
2017-12-03T22:08:54.925Z,0.50
2017-12-03T22:11:22.616Z,0.40
2017-12-03T22:13:50.276Z,0.40
2017-12-03T22:16:17.954Z,0.40
2017-12-03T22:18:45.610Z,0.40
2017-12-03T22:21:13.258Z,0.40
2017-12-03T22:23:41.851Z,0.50
2017-12-03T22:26:09.611Z,0.60
2017-12-03T22:28:38.726Z,0.60
2017-12-03T22:31:06.404Z,0.50
2017-12-03T22:33:34.826Z,0.60
2017-12-03T22:36:02.482Z,0.50
2017-12-03T22:38:30.148Z,0.60
2017-12-03T22:40:57.885Z,0.60
2017-12-03T22:43:25.556Z,0.60
2017-12-03T22:45:53.363Z,0.60
2017-12-03T22:48:21.006Z,0.60
2017-12-03T22:50:48.854Z,0.60
2017-12-03T22:53:16.514Z,0.60
2017-12-03T22:55:44.186Z,0.60
2017-12-03T22:58:11.819Z,0.70
2017-12-03T23:00:39.618Z,0.70
2017-12-03T23:03:08.340Z,0.70
2017-12-03T23:05:35.951Z,0.70
2017-12-03T23:08:03.682Z,0.70
2017-12-03T23:10:31.328Z,0.70
2017-12-03T23:12:59.838Z,0.80
2017-12-03T23:15:27.548Z,0.70
2017-12-03T23:17:55.983Z,0.80
2017-12-03T23:20:23.752Z,0.70
2017-12-03T23:22:52.176Z,0.80
2017-12-03T23:25:20.010Z,0.70
2017-12-03T23:27:47.762Z,0.80
2017-12-03T23:30:16.228Z,0.80
2017-12-03T23:32:43.906Z,0.80
2017-12-03T23:35:11.541Z,0.90
2017-12-03T23:37:39.412Z,0.90
2017-12-03T23:40:07.109Z,0.90
2017-12-03T23:42:34.729Z,0.90
2017-12-03T23:45:02.424Z,0.90
2017-12-03T23:47:30.049Z,0.90
2017-12-03T23:49:57.744Z,0.90
2017-12-03T23:52:26.170Z,0.90
2017-12-03T23:54:53.886Z,0.90
2017-12-03T23:57:23.549Z,1.00
2017-12-03T23:59:52.128Z,1.00
